Time;durP1;ratioP1;P1;durP2;ratioP2;P2;SDS_P1;SDS_P2;PMS_P1;PMS_P2;Temp;Humidity;BMP_temperature;BMP_pressure;BME280_temperature;BME280_humidity;BME280_pressure;Samples;Min_cycle;Max_cycle;Signal;HPM_P1;HPM_P2
2023/10/19 00:00:36;;;;;;;1.4;1.3;;;;;;;;;;;;;
2023/10/19 00:03:02;;;;;;;1.3;1.2;;;;;;;;;;;;;
2023/10/19 00:05:29;;;;;;;1.7;1.3;;;;;;;;;;;;;
2023/10/19 00:07:53;;;;;;;2.2;1.2;;;;;;;;;;;;;
2023/10/19 00:10:25;;;;;;;2;1.2;;;;;;;;;;;;;
2023/10/19 00:12:57;;;;;;;1.7;1.3;;;;;;;;;;;;;
2023/10/19 00:15:22;;;;;;;1.7;1.4;;;;;;;;;;;;;
2023/10/19 00:17:44;;;;;;;2.1;1.3;;;;;;;;;;;;;
2023/10/19 00:20:28;;;;;;;2;1.1;;;;;;;;;;;;;
2023/10/19 00:22:36;;;;;;;1.2;1.1;;;;;;;;;;;;;
2023/10/19 00:24:59;;;;;;;2.5;1.3;;;;;;;;;;;;;
2023/10/19 00:27:27;;;;;;;1.3;1.2;;;;;;;;;;;;;
2023/10/19 00:29:55;;;;;;;1.9;1.1;;;;;;;;;;;;;
2023/10/19 00:32:15;;;;;;;1.2;1;;;;;;;;;;;;;
2023/10/19 00:34:41;;;;;;;1.1;1;;;;;;;;;;;;;
2023/10/19 00:37:10;;;;;;;1.3;1;;;;;;;;;;;;;
2023/10/19 00:39:40;;;;;;;2.1;1.3;;;;;;;;;;;;;
2023/10/19 00:41:57;;;;;;;2.2;1.2;;;;;;;;;;;;;
2023/10/19 00:44:35;;;;;;;1.1;1;;;;;;;;;;;;;
2023/10/19 00:46:51;;;;;;;1.4;1.1;;;;;;;;;;;;;
2023/10/19 00:49:14;;;;;;;1.2;1.1;;;;;;;;;;;;;
2023/10/19 00:51:50;;;;;;;1.5;1.2;;;;;;;;;;;;;
2023/10/19 00:54:08;;;;;;;1.4;1;;;;;;;;;;;;;
2023/10/19 00:56:32;;;;;;;0.9;0.9;;;;;;;;;;;;;
2023/10/19 00:59:00;;;;;;;0.9;0.9;;;;;;;;;;;;;
2023/10/19 01:01:21;;;;;;;1.3;1;;;;;;;;;;;;;
2023/10/19 01:03:52;;;;;;;1.3;1;;;;;;;;;;;;;
2023/10/19 01:06:14;;;;;;;1.4;1.1;;;;;;;;;;;;;
2023/10/19 01:08:44;;;;;;;1;0.9;;;;;;;;;;;;;
2023/10/19 01:11:06;;;;;;;1.3;0.9;;;;;;;;;;;;;
2023/10/19 01:13:34;;;;;;;1.8;1;;;;;;;;;;;;;
2023/10/19 01:15:58;;;;;;;1.2;0.9;;;;;;;;;;;;;
2023/10/19 01:18:29;;;;;;;1.1;1;;;;;;;;;;;;;
2023/10/19 01:20:54;;;;;;;2;1.1;;;;;;;;;;;;;
2023/10/19 01:23:25;;;;;;;1.4;1;;;;;;;;;;;;;
2023/10/19 01:25:40;;;;;;;2;1.1;;;;;;;;;;;;;
2023/10/19 01:28:07;;;;;;;1.4;1.1;;;;;;;;;;;;;
2023/10/19 01:30:33;;;;;;;1.2;0.9;;;;;;;;;;;;;
2023/10/19 01:32:57;;;;;;;0.9;0.9;;;;;;;;;;;;;
2023/10/19 01:35:23;;;;;;;1.3;1.1;;;;;;;;;;;;;
2023/10/19 01:37:48;;;;;;;1;0.9;;;;;;;;;;;;;
2023/10/19 01:40:20;;;;;;;1.3;1;;;;;;;;;;;;;
2023/10/19 01:42:39;;;;;;;1.2;1.1;;;;;;;;;;;;;
2023/10/19 01:45:11;;;;;;;1.1;0.9;;;;;;;;;;;;;
2023/10/19 01:47:32;;;;;;;1.2;1;;;;;;;;;;;;;
2023/10/19 01:49:58;;;;;;;1;0.9;;;;;;;;;;;;;
2023/10/19 01:52:24;;;;;;;1.1;1;;;;;;;;;;;;;
2023/10/19 01:54:55;;;;;;;1.4;0.9;;;;;;;;;;;;;
2023/10/19 01:57:15;;;;;;;1.3;1.1;;;;;;;;;;;;;
2023/10/19 01:59:44;;;;;;;1;1;;;;;;;;;;;;;
2023/10/19 02:02:05;;;;;;;0.7;0.7;;;;;;;;;;;;;
2023/10/19 02:04:35;;;;;;;1;0.8;;;;;;;;;;;;;
2023/10/19 02:07:00;;;;;;;0.9;0.9;;;;;;;;;;;;;
2023/10/19 02:09:28;;;;;;;1;0.9;;;;;;;;;;;;;
2023/10/19 02:11:47;;;;;;;1.5;0.9;;;;;;;;;;;;;
2023/10/19 02:14:15;;;;;;;1.1;1;;;;;;;;;;;;;
2023/10/19 02:16:39;;;;;;;1.2;1;;;;;;;;;;;;;
2023/10/19 02:19:04;;;;;;;1.9;0.9;;;;;;;;;;;;;
2023/10/19 02:21:30;;;;;;;1.1;1;;;;;;;;;;;;;
2023/10/19 02:23:57;;;;;;;1;0.9;;;;;;;;;;;;;
2023/10/19 02:26:22;;;;;;;1.3;0.8;;;;;;;;;;;;;
2023/10/19 02:28:50;;;;;;;0.7;0.7;;;;;;;;;;;;;
2023/10/19 02:31:15;;;;;;;1.3;1.1;;;;;;;;;;;;;
2023/10/19 02:33:38;;;;;;;0.8;0.8;;;;;;;;;;;;;
2023/10/19 02:36:04;;;;;;;1.1;0.8;;;;;;;;;;;;;
2023/10/19 02:38:29;;;;;;;0.8;0.8;;;;;;;;;;;;;
2023/10/19 02:40:55;;;;;;;0.7;0.7;;;;;;;;;;;;;
2023/10/19 02:43:22;;;;;;;1.2;0.8;;;;;;;;;;;;;
2023/10/19 02:45:49;;;;;;;1.5;1;;;;;;;;;;;;;
2023/10/19 02:48:14;;;;;;;1.3;1;;;;;;;;;;;;;
2023/10/19 02:50:39;;;;;;;1.6;1;;;;;;;;;;;;;
2023/10/19 02:53:05;;;;;;;0.9;0.9;;;;;;;;;;;;;
2023/10/19 02:55:31;;;;;;;1;0.9;;;;;;;;;;;;;
2023/10/19 02:57:58;;;;;;;0.7;0.7;;;;;;;;;;;;;
2023/10/19 03:00:22;;;;;;;1.2;0.7;;;;;;;;;;;;;
2023/10/19 03:02:52;;;;;;;1.6;1.1;;;;;;;;;;;;;
2023/10/19 03:05:20;;;;;;;1.3;1.2;;;;;;;;;;;;;
2023/10/19 03:07:46;;;;;;;1.1;1;;;;;;;;;;;;;
2023/10/19 03:10:23;;;;;;;1.2;0.9;;;;;;;;;;;;;
2023/10/19 03:12:40;;;;;;;1;0.9;;;;;;;;;;;;;
2023/10/19 03:15:06;;;;;;;1.6;0.8;;;;;;;;;;;;;
2023/10/19 03:17:33;;;;;;;1.9;0.9;;;;;;;;;;;;;
2023/10/19 03:19:58;;;;;;;1.1;0.9;;;;;;;;;;;;;
2023/10/19 03:22:27;;;;;;;1.2;1;;;;;;;;;;;;;
2023/10/19 03:24:59;;;;;;;1.7;1.3;;;;;;;;;;;;;
2023/10/19 03:27:18;;;;;;;2.3;1.2;;;;;;;;;;;;;
2023/10/19 03:29:45;;;;;;;2.8;1.6;;;;;;;;;;;;;
2023/10/19 03:32:07;;;;;;;1.3;1.2;;;;;;;;;;;;;
2023/10/19 03:34:33;;;;;;;2.6;1.1;;;;;;;;;;;;;
2023/10/19 03:37:02;;;;;;;1.6;1.2;;;;;;;;;;;;;
2023/10/19 03:39:23;;;;;;;1.2;1.1;;;;;;;;;;;;;
2023/10/19 03:41:52;;;;;;;2.2;1.3;;;;;;;;;;;;;
2023/10/19 03:44:19;;;;;;;2.2;1.1;;;;;;;;;;;;;
2023/10/19 03:46:52;;;;;;;3.1;1.2;;;;;;;;;;;;;
2023/10/19 03:49:10;;;;;;;2.7;1.5;;;;;;;;;;;;;
2023/10/19 03:51:39;;;;;;;2.1;1.2;;;;;;;;;;;;;
2023/10/19 03:54:01;;;;;;;2.7;1.3;;;;;;;;;;;;;
2023/10/19 03:56:21;;;;;;;3.2;1.4;;;;;;;;;;;;;
2023/10/19 03:58:50;;;;;;;2.4;1.4;;;;;;;;;;;;;
2023/10/19 04:02:38;;;;;;;1.3;1.2;;;;;;;12.81;85.16406;921.9196;;;;
2023/10/19 04:05:03;;;;;;;2.1;1.4;;;;;;;12.83;85.04102;921.7859;;;;
2023/10/19 04:07:31;;;;;;;1.2;1.1;;;;;;;12.83;85.27051;921.9009;;;;
2023/10/19 04:10:09;;;;;;;1.9;1.1;;;;;;;12.91;85.0459;921.8462;;;;
2023/10/19 04:12:19;;;;;;;1.2;1.1;;;;;;;12.9;84.90625;921.8328;;;;
2023/10/19 04:14:44;;;;;;;1.9;1.3;;;;;;;12.87;85.0957;921.8503;;;;
2023/10/19 04:17:12;;;;;;;1.4;1.3;;;;;;;12.87;85.16504;921.8631;;;;
2023/10/19 04:19:34;;;;;;;1.2;1.1;;;;;;;12.87;85.30273;921.8599;;;;
2023/10/19 04:21:59;;;;;;;2.9;1.7;;;;;;;12.83;85.37402;921.872;;;;
2023/10/19 04:24:32;;;;;;;2.2;1.2;;;;;;;12.8;85.62109;921.827;;;;
2023/10/19 04:26:55;;;;;;;1.5;1.3;;;;;;;12.87;85.69141;921.7026;;;;
2023/10/19 04:29:26;;;;;;;1.6;1;;;;;;;12.94;85.44336;921.6752;;;;
2023/10/19 04:31:49;;;;;;;1.5;1.3;;;;;;;13.03;85.02246;921.666;;;;
2023/10/19 04:34:09;;;;;;;1.4;1;;;;;;;13.06;85.17773;921.6668;;;;
2023/10/19 04:36:42;;;;;;;1.4;1.1;;;;;;;13.07;84.96484;921.5872;;;;
2023/10/19 04:39:11;;;;;;;2;1.1;;;;;;;13.14;84.73535;921.6573;;;;
2023/10/19 04:41:31;;;;;;;1.7;1.4;;;;;;;;;;;;;
2023/10/19 04:43:58;;;;;;;1.6;1.4;;;;;;;;;;;;;
2023/10/19 04:46:22;;;;;;;1.6;1.2;;;;;;;;;;;;;
2023/10/19 04:48:50;;;;;;;1.8;1.1;;;;;;;;;;;;;
2023/10/19 04:51:14;;;;;;;1.3;1.1;;;;;;;;;;;;;
2023/10/19 04:53:39;;;;;;;1.8;1.3;;;;;;;;;;;;;
2023/10/19 04:56:04;;;;;;;1.8;1.2;;;;;;;;;;;;;
2023/10/19 04:58:30;;;;;;;2.1;1.4;;;;;;;;;;;;;
2023/10/19 05:00:55;;;;;;;1.7;1.4;;;;;;;;;;;;;
2023/10/19 05:03:23;;;;;;;1.7;1.4;;;;;;;;;;;;;
2023/10/19 05:05:48;;;;;;;3.2;2.3;;;;;;;;;;;;;
2023/10/19 05:08:13;;;;;;;2.4;1.8;;;;;;;;;;;;;
2023/10/19 05:10:40;;;;;;;2.8;1.8;;;;;;;;;;;;;
2023/10/19 05:13:04;;;;;;;2.6;2.2;;;;;;;;;;;;;
2023/10/19 05:15:29;;;;;;;2.2;1.9;;;;;;;;;;;;;
2023/10/19 05:17:58;;;;;;;5.1;2.4;;;;;;;;;;;;;
2023/10/19 05:20:23;;;;;;;3.2;2.5;;;;;;;;;;;;;
2023/10/19 05:22:48;;;;;;;4.3;3.2;;;;;;;;;;;;;
2023/10/19 05:25:13;;;;;;;4.5;3.1;;;;;;;;;;;;;
2023/10/19 05:27:42;;;;;;;4.5;3;;;;;;;;;;;;;
2023/10/19 05:30:05;;;;;;;4.1;3.1;;;;;;;;;;;;;
2023/10/19 05:32:30;;;;;;;4.3;3;;;;;;;;;;;;;
2023/10/19 05:34:56;;;;;;;4;3.1;;;;;;;;;;;;;
2023/10/19 05:37:25;;;;;;;4.2;3.2;;;;;;;;;;;;;
2023/10/19 05:39:51;;;;;;;5;3.2;;;;;;;;;;;;;
2023/10/19 05:42:13;;;;;;;3.8;2.7;;;;;;;;;;;;;
2023/10/19 05:44:41;;;;;;;4.3;3.1;;;;;;;;;;;;;
2023/10/19 05:47:06;;;;;;;4.7;3.4;;;;;;;;;;;;;
2023/10/19 05:49:31;;;;;;;3.5;2.6;;;;;;;;;;;;;
2023/10/19 05:51:56;;;;;;;5;3.4;;;;;;;;;;;;;
2023/10/19 05:54:23;;;;;;;4;3;;;;;;;;;;;;;
2023/10/19 05:56:49;;;;;;;5.1;3.2;;;;;;;;;;;;;
2023/10/19 05:59:15;;;;;;;5.1;4.5;;;;;;;;;;;;;
2023/10/19 06:01:40;;;;;;;5.2;3.5;;;;;;;;;;;;;
2023/10/19 06:04:06;;;;;;;3.7;3.1;;;;;;;;;;;;;
2023/10/19 06:06:31;;;;;;;5.1;2.9;;;;;;;;;;;;;
2023/10/19 06:08:56;;;;;;;3.8;2.6;;;;;;;;;;;;;
2023/10/19 06:11:21;;;;;;;2.8;2.1;;;;;;;;;;;;;
2023/10/19 06:13:49;;;;;;;2.8;2.2;;;;;;;;;;;;;
2023/10/19 06:16:14;;;;;;;4.5;2;;;;;;;;;;;;;
2023/10/19 06:18:45;;;;;;;2.3;2.1;;;;;;;;;;;;;
2023/10/19 06:21:12;;;;;;;3.5;2.3;;;;;;;;;;;;;
2023/10/19 06:23:36;;;;;;;4.3;2.5;;;;;;;;;;;;;
2023/10/19 06:26:04;;;;;;;3.5;2.3;;;;;;;;;;;;;
2023/10/19 06:28:28;;;;;;;3.3;1.9;;;;;;;;;;;;;
2023/10/19 06:30:56;;;;;;;3.3;2.1;;;;;;;;;;;;;
2023/10/19 06:33:22;;;;;;;3.3;2.1;;;;;;;;;;;;;
2023/10/19 06:35:50;;;;;;;3.6;2;;;;;;;;;;;;;
2023/10/19 06:38:15;;;;;;;3.1;2.2;;;;;;;;;;;;;
2023/10/19 06:40:40;;;;;;;3.6;2.8;;;;;;;;;;;;;
2023/10/19 06:43:06;;;;;;;2.6;2.3;;;;;;;;;;;;;
2023/10/19 06:45:33;;;;;;;5.1;3.1;;;;;;;;;;;;;
2023/10/19 06:47:59;;;;;;;4.6;3.2;;;;;;;;;;;;;
2023/10/19 06:50:25;;;;;;;6.8;4.3;;;;;;;;;;;;;
2023/10/19 06:52:51;;;;;;;4.2;3;;;;;;;;;;;;;
2023/10/19 06:55:18;;;;;;;4.5;2.5;;;;;;;;;;;;;
2023/10/19 06:57:43;;;;;;;13.3;8.3;;;;;;;;;;;;;
2023/10/19 07:00:14;;;;;;;10.7;7.2;;;;;;;;;;;;;
2023/10/19 07:02:36;;;;;;;8.6;5.3;;;;;;;;;;;;;
2023/10/19 07:05:02;;;;;;;5.2;3.6;;;;;;;;;;;;;
2023/10/19 07:07:26;;;;;;;5.3;3.7;;;;;;;;;;;;;
2023/10/19 07:09:53;;;;;;;5.2;3.8;;;;;;;;;;;;;
2023/10/19 07:12:18;;;;;;;5.7;3.8;;;;;;;;;;;;;
2023/10/19 07:14:46;;;;;;;3.3;2.6;;;;;;;;;;;;;
2023/10/19 07:17:11;;;;;;;3.7;2.7;;;;;;;;;;;;;
2023/10/19 07:19:37;;;;;;;4.3;2.7;;;;;;;;;;;;;
2023/10/19 07:22:04;;;;;;;2.9;2.3;;;;;;;;;;;;;
2023/10/19 07:24:30;;;;;;;2.9;2.4;;;;;;;;;;;;;
2023/10/19 07:27:04;;;;;;;4.2;2.9;;;;;;;;;;;;;
2023/10/19 07:29:23;;;;;;;3.1;2.3;;;;;;;;;;;;;
2023/10/19 07:31:46;;;;;;;3.4;2.1;;;;;;;;;;;;;
2023/10/19 07:34:14;;;;;;;2.8;2.1;;;;;;;;;;;;;
2023/10/19 07:36:36;;;;;;;5.4;2.9;;;;;;;;;;;;;
2023/10/19 07:39:02;;;;;;;6.5;3.8;;;;;;;;;;;;;
2023/10/19 07:41:33;;;;;;;5.5;2.9;;;;;;;;;;;;;
2023/10/19 07:43:53;;;;;;;6.8;3.3;;;;;;;;;;;;;
2023/10/19 07:46:17;;;;;;;3.9;2.5;;;;;;;;;;;;;
2023/10/19 07:48:43;;;;;;;3.8;2.2;;;;;;;;;;;;;
2023/10/19 07:51:11;;;;;;;2.7;2.3;;;;;;;;;;;;;
2023/10/19 07:53:38;;;;;;;4.9;3;;;;;;;;;;;;;
2023/10/19 07:56:03;;;;;;;4;2.6;;;;;;;;;;;;;
2023/10/19 07:58:30;;;;;;;3.2;2.3;;;;;;;;;;;;;
2023/10/19 08:00:56;;;;;;;4.6;3.3;;;;;;;;;;;;;
2023/10/19 08:03:22;;;;;;;4.5;2.8;;;;;;;;;;;;;
2023/10/19 08:05:47;;;;;;;2.9;2;;;;;;;;;;;;;
2023/10/19 08:08:13;;;;;;;2.6;2;;;;;;;;;;;;;
2023/10/19 08:10:38;;;;;;;3.7;2;;;;;;;;;;;;;
2023/10/19 08:13:04;;;;;;;3;2.1;;;;;;;;;;;;;
2023/10/19 08:15:30;;;;;;;4.2;2.8;;;;;;;;;;;;;
2023/10/19 08:17:55;;;;;;;3.5;2.2;;;;;;;;;;;;;
2023/10/19 08:20:23;;;;;;;3.3;2.2;;;;;;;;;;;;;
2023/10/19 08:22:46;;;;;;;3.3;2.1;;;;;;;;;;;;;
2023/10/19 08:25:15;;;;;;;2.7;1.9;;;;;;;;;;;;;
2023/10/19 08:27:44;;;;;;;1.9;1.6;;;;;;;;;;;;;
2023/10/19 08:30:08;;;;;;;3.1;2;;;;;;;;;;;;;
2023/10/19 08:32:33;;;;;;;2.7;1.8;;;;;;;;;;;;;
2023/10/19 08:34:58;;;;;;;2.1;1.4;;;;;;;;;;;;;
2023/10/19 08:37:29;;;;;;;2.7;1.6;;;;;;;;;;;;;
2023/10/19 08:39:57;;;;;;;4.4;2.5;;;;;;;;;;;;;
2023/10/19 08:42:22;;;;;;;4.9;2.7;;;;;;;;;;;;;
2023/10/19 08:44:47;;;;;;;4.1;2.7;;;;;;;;;;;;;
2023/10/19 08:47:12;;;;;;;4.4;2.4;;;;;;;;;;;;;
2023/10/19 08:49:38;;;;;;;3.5;2.1;;;;;;;;;;;;;
2023/10/19 08:52:04;;;;;;;3.6;2.4;;;;;;;;;;;;;
2023/10/19 08:54:30;;;;;;;5.6;2.7;;;;;;;;;;;;;
2023/10/19 08:56:56;;;;;;;3.5;1.9;;;;;;;;;;;;;
2023/10/19 08:59:20;;;;;;;3;1.7;;;;;;;;;;;;;
2023/10/19 09:01:46;;;;;;;3.4;1.8;;;;;;;;;;;;;
2023/10/19 09:04:16;;;;;;;2.4;1.7;;;;;;;;;;;;;
2023/10/19 09:06:41;;;;;;;1.9;1.6;;;;;;;;;;;;;
2023/10/19 09:09:09;;;;;;;1.8;1.5;;;;;;;;;;;;;
2023/10/19 09:11:31;;;;;;;2.9;2.1;;;;;;;;;;;;;
2023/10/19 09:13:57;;;;;;;4.4;3.2;;;;;;;;;;;;;
2023/10/19 09:16:21;;;;;;;7.8;4;;;;;;;;;;;;;
2023/10/19 09:18:49;;;;;;;5.5;3.5;;;;;;;;;;;;;
2023/10/19 09:21:23;;;;;;;3.5;2.8;;;;;;;;;;;;;
2023/10/19 09:23:41;;;;;;;3.2;2.6;;;;;;;;;;;;;
2023/10/19 09:26:09;;;;;;;3.3;1.9;;;;;;;;;;;;;
2023/10/19 09:28:34;;;;;;;4.8;2.5;;;;;;;;;;;;;
2023/10/19 09:30:59;;;;;;;6.1;2.5;;;;;;;;;;;;;
2023/10/19 09:33:24;;;;;;;4.2;2.2;;;;;;;;;;;;;
2023/10/19 09:35:52;;;;;;;3.3;2;;;;;;;;;;;;;
2023/10/19 09:38:21;;;;;;;4;1.9;;;;;;;;;;;;;
2023/10/19 09:40:41;;;;;;;12;8.9;;;;;;;;;;;;;
2023/10/19 09:43:08;;;;;;;14.5;9.6;;;;;;;;;;;;;
2023/10/19 09:45:32;;;;;;;18.2;13.7;;;;;;;;;;;;;
2023/10/19 09:47:58;;;;;;;9.7;7.2;;;;;;;;;;;;;
2023/10/19 09:50:23;;;;;;;8.1;5.1;;;;;;;;;;;;;
2023/10/19 09:52:48;;;;;;;4.4;2.4;;;;;;;;;;;;;
2023/10/19 09:55:15;;;;;;;3.1;2.3;;;;;;;;;;;;;
2023/10/19 09:57:41;;;;;;;3.7;2.1;;;;;;;;;;;;;
2023/10/19 10:00:11;;;;;;;1.5;1.3;;;;;;;;;;;;;
2023/10/19 10:02:36;;;;;;;3;1.6;;;;;;;;;;;;;
2023/10/19 10:05:01;;;;;;;3.2;1.6;;;;;;;;;;;;;
2023/10/19 10:07:30;;;;;;;2.8;1.6;;;;;;;;;;;;;
2023/10/19 10:09:55;;;;;;;2.5;1.7;;;;;;;;;;;;;
2023/10/19 10:12:21;;;;;;;4.1;2.1;;;;;;;;;;;;;
2023/10/19 10:14:45;;;;;;;2.8;2;;;;;;;;;;;;;
2023/10/19 10:17:11;;;;;;;2.7;1.7;;;;;;;;;;;;;
2023/10/19 10:19:36;;;;;;;2;1.4;;;;;;;;;;;;;
2023/10/19 10:22:01;;;;;;;1.9;1.4;;;;;;;;;;;;;
2023/10/19 10:24:27;;;;;;;3.1;1.5;;;;;;;;;;;;;
2023/10/19 10:26:52;;;;;;;3;1.6;;;;;;;;;;;;;
2023/10/19 10:29:19;;;;;;;2.1;1.6;;;;;;;;;;;;;
2023/10/19 10:31:42;;;;;;;2.3;1.6;;;;;;;;;;;;;
2023/10/19 10:34:09;;;;;;;1.4;1.3;;;;;;;;;;;;;
2023/10/19 10:36:35;;;;;;;1.2;1.1;;;;;;;;;;;;;
2023/10/19 10:39:00;;;;;;;1.8;1.3;;;;;;;;;;;;;
2023/10/19 10:41:28;;;;;;;1.4;1.1;;;;;;;;;;;;;
2023/10/19 10:43:53;;;;;;;1.6;1;;;;;;;;;;;;;
2023/10/19 10:46:18;;;;;;;2.4;1.3;;;;;;;;;;;;;
2023/10/19 10:48:45;;;;;;;1.9;0.9;;;;;;;;;;;;;
2023/10/19 10:51:10;;;;;;;1.1;0.9;;;;;;;;;;;;;
2023/10/19 10:53:37;;;;;;;1.9;1.1;;;;;;;;;;;;;
2023/10/19 10:56:01;;;;;;;1.2;1.1;;;;;;;;;;;;;
2023/10/19 10:58:26;;;;;;;2.5;1.2;;;;;;;;;;;;;
2023/10/19 11:00:52;;;;;;;2.9;1.1;;;;;;;;;;;;;
2023/10/19 11:03:22;;;;;;;1.1;0.9;;;;;;;;;;;;;
2023/10/19 11:05:47;;;;;;;2.5;1;;;;;;;;;;;;;
2023/10/19 11:08:16;;;;;;;1.6;0.9;;;;;;;;;;;;;
2023/10/19 11:10:38;;;;;;;1.5;1;;;;;;;;;;;;;
2023/10/19 11:13:06;;;;;;;1.7;1.1;;;;;;;;;;;;;
2023/10/19 11:15:31;;;;;;;1.5;1;;;;;;;;;;;;;
2023/10/19 11:17:59;;;;;;;0.7;0.7;;;;;;;;;;;;;
2023/10/19 11:20:24;;;;;;;2.4;1.1;;;;;;;;;;;;;
2023/10/19 11:22:49;;;;;;;1.1;1;;;;;;;;;;;;;
2023/10/19 11:25:15;;;;;;;1.8;1;;;;;;;;;;;;;
2023/10/19 11:27:41;;;;;;;2;1.2;;;;;;;;;;;;;
2023/10/19 11:30:07;;;;;;;1.4;1;;;;;;;;;;;;;
2023/10/19 11:32:31;;;;;;;0.8;0.8;;;;;;;;;;;;;
2023/10/19 11:35:01;;;;;;;1.3;1.1;;;;;;;;;;;;;
2023/10/19 11:37:27;;;;;;;1.6;0.9;;;;;;;;;;;;;
2023/10/19 11:39:52;;;;;;;1.8;1;;;;;;;;;;;;;
2023/10/19 11:42:18;;;;;;;2.2;0.9;;;;;;;;;;;;;
2023/10/19 11:44:43;;;;;;;2.2;1;;;;;;;;;;;;;
2023/10/19 11:47:10;;;;;;;1.4;1;;;;;;;;;;;;;
2023/10/19 11:49:35;;;;;;;1.8;0.9;;;;;;;;;;;;;
2023/10/19 11:52:02;;;;;;;1;0.9;;;;;;;;;;;;;
2023/10/19 11:54:26;;;;;;;1.1;0.8;;;;;;;;;;;;;
2023/10/19 11:56:53;;;;;;;1;0.9;;;;;;;;;;;;;
2023/10/19 11:59:17;;;;;;;2.4;1.1;;;;;;;;;;;;;
2023/10/19 12:01:44;;;;;;;1.2;1;;;;;;;;;;;;;
2023/10/19 12:04:09;;;;;;;0.9;0.9;;;;;;;;;;;;;
2023/10/19 12:06:34;;;;;;;2.3;1;;;;;;;;;;;;;
2023/10/19 12:09:14;;;;;;;1.7;1.1;;;;;;;;;;;;;
2023/10/19 12:11:25;;;;;;;1.6;0.9;;;;;;;;;;;;;
2023/10/19 12:13:51;;;;;;;0.6;0.6;;;;;;;;;;;;;
2023/10/19 12:16:16;;;;;;;0.8;0.7;;;;;;;;;;;;;
2023/10/19 12:18:43;;;;;;;1;0.9;;;;;;;;;;;;;
2023/10/19 12:21:11;;;;;;;1.2;0.9;;;;;;;;;;;;;
2023/10/19 12:23:33;;;;;;;3.6;1.3;;;;;;;;;;;;;
2023/10/19 12:26:02;;;;;;;1.7;0.9;;;;;;;;;;;;;
2023/10/19 12:28:24;;;;;;;1.5;1;;;;;;;;;;;;;
2023/10/19 12:30:51;;;;;;;1.4;0.9;;;;;;;;;;;;;
2023/10/19 12:33:16;;;;;;;1.1;0.9;;;;;;;;;;;;;
2023/10/19 12:35:51;;;;;;;2.2;0.8;;;;;;;;;;;;;
2023/10/19 12:38:15;;;;;;;1.1;0.9;;;;;;;;;;;;;
2023/10/19 12:40:35;;;;;;;1;0.9;;;;;;;;;;;;;
2023/10/19 12:43:03;;;;;;;1.1;0.7;;;;;;;;;;;;;
2023/10/19 12:45:26;;;;;;;0.9;0.6;;;;;;;;;;;;;
2023/10/19 12:47:54;;;;;;;1.2;0.7;;;;;;;;;;;;;
2023/10/19 12:50:19;;;;;;;2.1;1;;;;;;;;;;;;;
2023/10/19 12:52:45;;;;;;;1.1;1;;;;;;;;;;;;;
2023/10/19 12:55:11;;;;;;;0.8;0.8;;;;;;;;;;;;;
2023/10/19 12:57:39;;;;;;;1.4;1;;;;;;;;;;;;;
2023/10/19 13:00:23;;;;;;;1;0.8;;;;;;;;;;;;;
2023/10/19 13:02:30;;;;;;;1.7;0.9;;;;;;;;;;;;;
2023/10/19 13:04:59;;;;;;;1.5;1;;;;;;;;;;;;;
2023/10/19 13:07:23;;;;;;;1.3;0.9;;;;;;;;;;;;;
2023/10/19 13:09:49;;;;;;;1.2;1.1;;;;;;;;;;;;;
2023/10/19 13:12:14;;;;;;;1.3;1;;;;;;;;;;;;;
2023/10/19 13:14:42;;;;;;;1.2;0.8;;;;;;;;;;;;;
2023/10/19 13:17:05;;;;;;;2.3;1;;;;;;;;;;;;;
2023/10/19 13:19:31;;;;;;;0.6;0.6;;;;;;;;;;;;;
2023/10/19 13:21:58;;;;;;;0.9;0.8;;;;;;;;;;;;;
2023/10/19 13:24:22;;;;;;;0.8;0.8;;;;;;;;;;;;;
2023/10/19 13:26:47;;;;;;;2.2;1.1;;;;;;;;;;;;;
2023/10/19 13:29:12;;;;;;;1.5;0.9;;;;;;;;;;;;;
2023/10/19 13:31:38;;;;;;;1;1;;;;;;;;;;;;;
2023/10/19 13:34:10;;;;;;;1.2;1;;;;;;;;;;;;;
2023/10/19 13:36:28;;;;;;;1.9;1.3;;;;;;;;;;;;;
2023/10/19 13:38:54;;;;;;;1.6;1.1;;;;;;;;;;;;;
2023/10/19 13:41:18;;;;;;;2;1.2;;;;;;;;;;;;;
2023/10/19 13:43:45;;;;;;;1.6;1;;;;;;;;;;;;;
2023/10/19 13:46:10;;;;;;;1.2;0.9;;;;;;;;;;;;;
2023/10/19 13:48:39;;;;;;;2.2;1.2;;;;;;;;;;;;;
2023/10/19 13:51:12;;;;;;;1.3;1;;;;;;;;;;;;;
2023/10/19 13:53:27;;;;;;;1.8;1.4;;;;;;;;;;;;;
2023/10/19 13:55:53;;;;;;;1.4;1;;;;;;;;;;;;;
2023/10/19 13:58:18;;;;;;;1.1;0.8;;;;;;;;;;;;;
2023/10/19 14:00:44;;;;;;;1.1;0.9;;;;;;;;;;;;;
2023/10/19 14:03:08;;;;;;;0.8;0.8;;;;;;;;;;;;;
2023/10/19 14:05:35;;;;;;;2.4;1.2;;;;;;;;;;;;;
2023/10/19 14:08:00;;;;;;;1.6;1.1;;;;;;;;;;;;;
2023/10/19 14:10:27;;;;;;;1.3;1.1;;;;;;;;;;;;;
2023/10/19 14:12:51;;;;;;;1.9;1.1;;;;;;;;;;;;;
2023/10/19 14:15:19;;;;;;;2;1.1;;;;;;;;;;;;;
2023/10/19 14:17:44;;;;;;;1.2;1.1;;;;;;;;;;;;;
2023/10/19 14:20:14;;;;;;;0.9;0.9;;;;;;;;;;;;;
2023/10/19 14:22:43;;;;;;;1.5;1;;;;;;;;;;;;;
2023/10/19 14:25:12;;;;;;;1;0.8;;;;;;;;;;;;;
2023/10/19 14:27:34;;;;;;;1.2;1;;;;;;;;;;;;;
2023/10/19 14:30:00;;;;;;;1.7;1;;;;;;;;;;;;;
2023/10/19 14:32:26;;;;;;;1.6;1;;;;;;;;;;;;;
2023/10/19 14:34:51;;;;;;;2.7;1.2;;;;;;;;;;;;;
2023/10/19 14:37:17;;;;;;;1.7;1.2;;;;;;;;;;;;;
2023/10/19 14:39:42;;;;;;;1.9;1.2;;;;;;;;;;;;;
2023/10/19 14:42:08;;;;;;;2.8;1.1;;;;;;;;;;;;;
2023/10/19 14:44:36;;;;;;;1.4;1;;;;;;;;;;;;;
2023/10/19 14:47:02;;;;;;;2.1;1.1;;;;;;;;;;;;;
2023/10/19 14:49:26;;;;;;;1.3;1.1;;;;;;;;;;;;;
2023/10/19 14:51:52;;;;;;;1.9;1.4;;;;;;;;;;;;;
2023/10/19 14:54:17;;;;;;;1.4;1;;;;;;;;;;;;;
2023/10/19 14:56:42;;;;;;;1.8;1.2;;;;;;;;;;;;;
2023/10/19 14:59:10;;;;;;;1.4;0.9;;;;;;;;;;;;;
2023/10/19 15:01:35;;;;;;;1.4;1.2;;;;;;;;;;;;;
2023/10/19 15:04:00;;;;;;;1.4;1.2;;;;;;;;;;;;;
2023/10/19 15:06:28;;;;;;;1.9;1.5;;;;;;;;;;;;;
2023/10/19 15:08:53;;;;;;;2.1;1.2;;;;;;;;;;;;;
2023/10/19 15:11:20;;;;;;;1.4;1.1;;;;;;;;;;;;;
2023/10/19 15:13:45;;;;;;;1.1;1;;;;;;;;;;;;;
2023/10/19 15:16:12;;;;;;;1.8;1.1;;;;;;;;;;;;;
2023/10/19 15:18:39;;;;;;;1.4;1.3;;;;;;;;;;;;;
2023/10/19 15:21:04;;;;;;;1.5;1.3;;;;;;;;;;;;;
2023/10/19 15:23:31;;;;;;;1.2;1.1;;;;;;;;;;;;;
2023/10/19 15:25:56;;;;;;;2.3;1.5;;;;;;;;;;;;;
2023/10/19 15:28:21;;;;;;;1.4;1.2;;;;;;;;;;;;;
2023/10/19 15:30:46;;;;;;;2;1.3;;;;;;;;;;;;;
2023/10/19 15:33:14;;;;;;;2;1.7;;;;;;;;;;;;;
2023/10/19 15:35:39;;;;;;;1.9;1.2;;;;;;;;;;;;;
2023/10/19 15:38:05;;;;;;;1.8;1.3;;;;;;;;;;;;;
2023/10/19 15:40:30;;;;;;;1.5;1.4;;;;;;;;;;;;;
2023/10/19 15:42:58;;;;;;;1.4;1.3;;;;;;;;;;;;;
2023/10/19 15:45:22;;;;;;;2.4;1.2;;;;;;;;;;;;;
2023/10/19 15:47:51;;;;;;;1.5;1.4;;;;;;;;;;;;;
2023/10/19 15:50:20;;;;;;;1.8;1.4;;;;;;;;;;;;;
2023/10/19 15:52:45;;;;;;;2.8;1.5;;;;;;;;;;;;;
2023/10/19 15:55:19;;;;;;;1.6;1.2;;;;;;;;;;;;;
2023/10/19 15:57:42;;;;;;;2.1;1.3;;;;;;;;;;;;;
2023/10/19 16:00:13;;;;;;;2;1.2;;;;;;;;;;;;;
2023/10/19 16:02:33;;;;;;;1.3;1.2;;;;;;;;;;;;;
2023/10/19 16:05:00;;;;;;;1.5;1.1;;;;;;;;;;;;;
2023/10/19 16:07:25;;;;;;;1.7;1.1;;;;;;;;;;;;;
2023/10/19 16:09:51;;;;;;;1.3;1.1;;;;;;;;;;;;;
2023/10/19 16:12:17;;;;;;;1.6;1.3;;;;;;;;;;;;;
2023/10/19 16:14:43;;;;;;;4.7;3.4;;;;;;;;;;;;;
2023/10/19 16:17:08;;;;;;;8.4;4.8;;;;;;;;;;;;;
2023/10/19 16:19:35;;;;;;;3;2.6;;;;;;;;;;;;;
2023/10/19 16:22:00;;;;;;;2.5;1.5;;;;;;;;;;;;;
2023/10/19 16:24:26;;;;;;;1.2;1.1;;;;;;;;;;;;;
2023/10/19 16:26:50;;;;;;;4.6;2.8;;;;;;;;;;;;;
2023/10/19 16:29:18;;;;;;;4.3;2.7;;;;;;;;;;;;;
2023/10/19 16:31:43;;;;;;;14.7;7.6;;;;;;;;;;;;;
2023/10/19 16:34:10;;;;;;;5.6;3.8;;;;;;;;;;;;;
2023/10/19 16:36:35;;;;;;;7.8;5.8;;;;;;;;;;;;;
2023/10/19 16:39:01;;;;;;;11.4;8.7;;;;;;;;;;;;;
2023/10/19 16:41:27;;;;;;;1.8;1.6;;;;;;;;;;;;;
2023/10/19 16:43:53;;;;;;;2.6;1.4;;;;;;;;;;;;;
2023/10/19 16:46:18;;;;;;;1.4;1.3;;;;;;;;;;;;;
2023/10/19 16:48:44;;;;;;;1.2;1.1;;;;;;;;;;;;;
2023/10/19 16:51:09;;;;;;;1.7;1.4;;;;;;;;;;;;;
2023/10/19 16:53:35;;;;;;;2.2;2.1;;;;;;;;;;;;;
2023/10/19 16:56:00;;;;;;;1.7;1.6;;;;;;;;;;;;;
2023/10/19 16:58:28;;;;;;;3.8;2;;;;;;;;;;;;;
2023/10/19 17:00:52;;;;;;;2.4;2.1;;;;;;;;;;;;;
2023/10/19 17:03:19;;;;;;;3.4;2.9;;;;;;;;;;;;;
2023/10/19 17:05:46;;;;;;;3.4;2.8;;;;;;;;;;;;;
2023/10/19 17:08:11;;;;;;;3.4;2.5;;;;;;;;;;;;;
2023/10/19 17:10:36;;;;;;;3.8;3.3;;;;;;;;;;;;;
2023/10/19 17:13:01;;;;;;;3.7;3.2;;;;;;;;;;;;;
2023/10/19 17:15:26;;;;;;;3.5;2.8;;;;;;;;;;;;;
2023/10/19 17:17:54;;;;;;;3.7;2.4;;;;;;;;;;;;;
2023/10/19 17:20:19;;;;;;;2.5;2;;;;;;;;;;;;;
2023/10/19 17:22:45;;;;;;;3.4;2.6;;;;;;;;;;;;;
2023/10/19 17:25:11;;;;;;;2.4;2.1;;;;;;;;;;;;;
2023/10/19 17:27:37;;;;;;;2.7;2.4;;;;;;;;;;;;;
2023/10/19 17:30:02;;;;;;;3.2;2.4;;;;;;;;;;;;;
2023/10/19 17:32:29;;;;;;;3.6;2.6;;;;;;;;;;;;;
2023/10/19 17:34:53;;;;;;;5;3.5;;;;;;;;;;;;;
2023/10/19 17:37:19;;;;;;;6.1;4.4;;;;;;;;;;;;;
2023/10/19 17:39:44;;;;;;;7.4;4.4;;;;;;;;;;;;;
2023/10/19 17:42:10;;;;;;;6.4;4.5;;;;;;;;;;;;;
2023/10/19 17:44:35;;;;;;;4.5;3.5;;;;;;;;;;;;;
2023/10/19 17:47:00;;;;;;;5.5;3.9;;;;;;;;;;;;;
2023/10/19 17:49:26;;;;;;;6.9;4.8;;;;;;;;;;;;;
2023/10/19 17:51:52;;;;;;;8.4;5.6;;;;;;;;;;;;;
2023/10/19 17:54:17;;;;;;;7.7;5.1;;;;;;;;;;;;;
2023/10/19 17:56:43;;;;;;;11.2;7.7;;;;;;;;;;;;;
2023/10/19 17:59:08;;;;;;;8.1;6.2;;;;;;;;;;;;;
2023/10/19 18:01:35;;;;;;;10.1;6.9;;;;;;;;;;;;;
2023/10/19 18:04:02;;;;;;;10.6;8;;;;;;;;;;;;;
2023/10/19 18:06:26;;;;;;;10.5;7.9;;;;;;;;;;;;;
2023/10/19 18:08:52;;;;;;;9.5;7.3;;;;;;;;;;;;;
2023/10/19 18:11:19;;;;;;;8.4;7.6;;;;;;;;;;;;;
2023/10/19 18:13:44;;;;;;;4.4;3.5;;;;;;;;;;;;;
2023/10/19 18:16:12;;;;;;;5.6;3.7;;;;;;;;;;;;;
2023/10/19 18:18:36;;;;;;;5.6;4.1;;;;;;;;;;;;;
2023/10/19 18:21:03;;;;;;;5.6;3.7;;;;;;;;;;;;;
2023/10/19 18:23:26;;;;;;;4.7;3.5;;;;;;;;;;;;;
2023/10/19 18:25:54;;;;;;;4.3;3.4;;;;;;;;;;;;;
2023/10/19 18:28:19;;;;;;;5.6;5;;;;;;;;;;;;;
2023/10/19 18:30:45;;;;;;;5.5;4;;;;;;;;;;;;;
2023/10/19 18:33:11;;;;;;;4.9;3.5;;;;;;;;;;;;;
2023/10/19 18:35:39;;;;;;;3.9;3.2;;;;;;;;;;;;;
2023/10/19 18:38:02;;;;;;;4;3.3;;;;;;;;;;;;;
2023/10/19 18:40:29;;;;;;;4.8;3;;;;;;;;;;;;;
2023/10/19 18:42:53;;;;;;;6.6;4.3;;;;;;;;;;;;;
2023/10/19 18:45:22;;;;;;;6.7;4.9;;;;;;;;;;;;;
2023/10/19 18:47:46;;;;;;;7.8;5;;;;;;;;;;;;;
2023/10/19 18:50:13;;;;;;;9.5;5.4;;;;;;;;;;;;;
2023/10/19 18:52:37;;;;;;;6.6;4.5;;;;;;;;;;;;;
2023/10/19 18:55:03;;;;;;;6.2;3.9;;;;;;;;;;;;;
2023/10/19 18:57:28;;;;;;;6.4;4.1;;;;;;;;;;;;;
2023/10/19 18:59:53;;;;;;;4.6;3.4;;;;;;;;;;;;;
2023/10/19 19:02:18;;;;;;;5.3;3.5;;;;;;;;;;;;;
2023/10/19 19:04:45;;;;;;;6;4;;;;;;;;;;;;;
2023/10/19 19:07:10;;;;;;;5.8;4;;;;;;;;;;;;;
2023/10/19 19:09:36;;;;;;;4;3.4;;;;;;;;;;;;;
2023/10/19 19:12:01;;;;;;;5.1;3.2;;;;;;;;;;;;;
2023/10/19 19:14:28;;;;;;;4.9;3.5;;;;;;;;;;;;;
2023/10/19 19:16:54;;;;;;;4;3.3;;;;;;;;;;;;;
2023/10/19 19:19:19;;;;;;;3.6;3.1;;;;;;;;;;;;;
2023/10/19 19:21:44;;;;;;;4.9;3.4;;;;;;;;;;;;;
2023/10/19 19:24:10;;;;;;;3.8;3.3;;;;;;;;;;;;;
2023/10/19 19:26:35;;;;;;;3.9;2.9;;;;;;;;;;;;;
2023/10/19 19:29:01;;;;;;;4;2.7;;;;;;;;;;;;;
2023/10/19 19:31:26;;;;;;;5.5;4;;;;;;;;;;;;;
2023/10/19 19:33:52;;;;;;;4.4;3.1;;;;;;;;;;;;;
2023/10/19 19:36:17;;;;;;;7.9;4.6;;;;;;;;;;;;;
2023/10/19 19:38:43;;;;;;;3.6;2.9;;;;;;;;;;;;;
2023/10/19 19:41:10;;;;;;;4.1;2.9;;;;;;;;;;;;;
2023/10/19 19:43:37;;;;;;;4.2;3.2;;;;;;;;;;;;;
2023/10/19 19:46:02;;;;;;;6.4;4.6;;;;;;;;;;;;;
2023/10/19 19:48:28;;;;;;;6.4;4.2;;;;;;;;;;;;;
2023/10/19 19:50:53;;;;;;;5.8;4.1;;;;;;;;;;;;;
2023/10/19 19:53:20;;;;;;;5.1;3.8;;;;;;;;;;;;;
2023/10/19 19:55:46;;;;;;;6.2;3.6;;;;;;;;;;;;;
2023/10/19 19:58:14;;;;;;;4;3.2;;;;;;;;;;;;;
2023/10/19 20:00:38;;;;;;;3.2;2.6;;;;;;;;;;;;;
2023/10/19 20:03:03;;;;;;;4.2;3;;;;;;;;;;;;;
2023/10/19 20:05:30;;;;;;;3.4;2.6;;;;;;;;;;;;;
2023/10/19 20:07:55;;;;;;;2.9;2.6;;;;;;;;;;;;;
2023/10/19 20:10:20;;;;;;;4.3;2.7;;;;;;;;;;;;;
2023/10/19 20:12:47;;;;;;;3.4;2.6;;;;;;;;;;;;;
2023/10/19 20:15:14;;;;;;;3.3;2.4;;;;;;;;;;;;;
2023/10/19 20:17:39;;;;;;;3.3;2.3;;;;;;;;;;;;;
2023/10/19 20:20:08;;;;;;;2.7;2.4;;;;;;;;;;;;;
2023/10/19 20:22:30;;;;;;;2.4;2.2;;;;;;;;;;;;;
2023/10/19 20:24:55;;;;;;;2.7;2.3;;;;;;;;;;;;;